Monroe, WI

10:13 PM CDT on October 18, 2019 (GMT -0500)
Monroe Municipal

Weather History for KEFT - August, 2019

Change the Weather History Date:

Thursday, August 29, 2019

  Actual Average Record
Temperature  
Mean Temperature 66 °F -  
Max Temperature 82 °F 86 °F 90 °F (2010)
Min Temperature 52 °F 58 °F 52 °F (2019)
Cooling Degree Days 2    
Growing Degree Days 16 (Base 50)    
Moisture  
Dew Point 56 °F    
Average Humidity 66    
Maximum Humidity 94    
Minimum Humidity 43    
Precipitation  
Precipitation 0.00 in - - ()
Sea Level Pressure  
Sea Level Pressure 29.90 in    
Wind  
Wind Speed 12 mph (WSW)    
Max Wind Speed 25 mph    
Max Gust Speed 34 mph    
Visibility 10 miles    
Events      
Averages and records for this station are not official NWS values.
T = Trace of Precipitation, MM = Missing Value Source: NWS Daily Summary

Daily Weather History Graph

Daily Weather History Graph

Search for Another Location

Airport or City:

Astronomy

Aug. 29, 2019 Rise Set
Actual Time 6:19 AM CDT 7:38 PM CDT
Civil Twilight 5:50 AM CDT 8:07 PM CDT
Nautical Twilight 5:15 AM CDT 8:42 PM CDT
Astronomical Twilight 4:38 AM CDT 9:19 PM CDT
Moon 5:02 AM CDT (8/29) 7:36 PM CDT (8/29)
Length of Visible Light 14h 16m
Length of Day
13h 18m
Waning Crescent, 1% of the Moon is Illuminated
Aug 29
Waning Crescent
Aug 30
New
Sep 5
First Quarter
Sep 13
Full
Sep 21
Last Quarter

Hourly Weather History & Observations

Time (CDT) Temp. Heat Index Dew Point Humidity Pressure Visibility Wind Dir Wind Speed Gust Speed Precip Events Conditions
12:15 AM 59.9 °F - 52.2 °F 76% 29.98 in 10.0 mi WSW 9.2 mph - N/A   Clear
2:15 AM 60.1 °F - 52.0 °F 75% 29.97 in 10.0 mi West 9.2 mph - N/A   Clear
2:35 AM 59.5 °F - 52.0 °F 76% 29.97 in 10.0 mi West 10.4 mph - N/A   Clear
2:55 AM 56.8 °F - 50.7 °F 80% 29.97 in 10.0 mi SW 5.8 mph - N/A   Clear
3:15 AM 54.9 °F - 50.4 °F 85% 29.97 in 10.0 mi SW 5.8 mph - N/A   Clear
3:35 AM 54.7 °F - 51.3 °F 88% 29.97 in 10.0 mi SW 6.9 mph - N/A   Clear
3:55 AM 54.5 °F - 51.1 °F 88% 29.97 in 10.0 mi SW 6.9 mph - N/A   Clear
4:15 AM 55.0 °F - 51.1 °F 86% 29.97 in 10.0 mi SW 6.9 mph - N/A   Clear
4:35 AM 54.1 °F - 51.4 °F 91% 29.96 in 10.0 mi SSW 5.8 mph - N/A   Clear
4:55 AM 53.4 °F - 51.1 °F 92% 29.96 in 10.0 mi SSW 8.1 mph - N/A   Clear
5:15 AM 52.7 °F - 50.9 °F 94% 29.96 in 10.0 mi SSW 8.1 mph - N/A   Clear
5:35 AM 52.7 °F - 50.9 °F 94% 29.96 in 10.0 mi SSW 9.2 mph - N/A   Clear
5:55 AM 53.1 °F - 51.4 °F 94% 29.96 in 10.0 mi SSW 8.1 mph - N/A   Clear
6:15 AM 53.2 °F - 51.1 °F 92% 29.96 in 10.0 mi SSW 8.1 mph - N/A   Clear
6:35 AM 54.5 °F - 51.8 °F 91% 29.95 in 10.0 mi SSW 8.1 mph - N/A   Clear
6:55 AM 54.7 °F - 52.3 °F 92% 29.95 in 10.0 mi SSW 8.1 mph - N/A   Clear
7:15 AM 55.8 °F - 53.1 °F 91% 29.95 in 10.0 mi South 8.1 mph - N/A   Clear
7:35 AM 57.4 °F - 54.0 °F 88% 29.94 in 10.0 mi SSW 9.2 mph - N/A   Scattered Clouds
7:55 AM 59.0 °F - 55.0 °F 87% 29.94 in 10.0 mi SSW 9.2 mph - N/A   Scattered Clouds
8:15 AM 61.5 °F - 54.5 °F 78% 29.93 in 10.0 mi SSW 11.5 mph - N/A   Scattered Clouds
8:35 AM 62.8 °F - 54.5 °F 74% 29.92 in 10.0 mi SSW 13.8 mph - N/A   Scattered Clouds
8:55 AM 64.9 °F - 55.2 °F 71% 29.90 in 10.0 mi SSW 11.5 mph - N/A   Scattered Clouds
9:15 AM 66.7 °F - 55.9 °F 68% 29.90 in 10.0 mi SSW 15.0 mph - N/A   Clear
9:35 AM 68.0 °F - 55.8 °F 65% 29.89 in 10.0 mi SSW 17.3 mph 24.2 mph N/A   Scattered Clouds
9:55 AM 69.4 °F - 57.6 °F 66% 29.88 in 10.0 mi SSW 17.3 mph 25.3 mph N/A   Clear
10:15 AM 71.6 °F - 58.8 °F 64% 29.88 in 10.0 mi SW 19.6 mph 26.5 mph N/A   Clear
10:35 AM 72.7 °F - 60.1 °F 64% 29.87 in 10.0 mi SW 13.8 mph - N/A   Clear
10:55 AM 74.5 °F - 60.3 °F 61% 29.86 in 10.0 mi SW 21.9 mph 31.1 mph N/A   Clear
11:15 AM 76.1 °F - 61.2 °F 60% 29.85 in 10.0 mi SW 20.7 mph 26.5 mph N/A   Clear
11:35 AM 76.8 °F - 61.2 °F 58% 29.84 in 10.0 mi SW 19.6 mph 27.6 mph N/A   Clear
11:55 AM 78.1 °F - 62.1 °F 58% 29.84 in 10.0 mi SW 19.6 mph 26.5 mph N/A   Clear
12:15 PM 78.1 °F - 63.0 °F 60% 29.83 in 10.0 mi SW 18.4 mph 29.9 mph N/A   Clear
12:35 PM 79.7 °F - 63.5 °F 58% 29.84 in 10.0 mi SSW 23.0 mph 32.2 mph N/A   Clear
12:55 PM 79.7 °F - 63.9 °F 58% 29.84 in 10.0 mi SW 20.7 mph 29.9 mph N/A   Scattered Clouds
1:15 PM 81.0 °F 82.6 °F 64.2 °F 57% 29.84 in 10.0 mi SW 23.0 mph 34.5 mph N/A   Scattered Clouds
1:35 PM 80.8 °F 82.2 °F 63.7 °F 56% 29.83 in 10.0 mi SW 21.9 mph 28.8 mph N/A   Scattered Clouds
1:55 PM 81.3 °F 82.7 °F 63.9 °F 55% 29.83 in 10.0 mi WSW 23.0 mph 31.1 mph N/A   Clear
2:15 PM 81.7 °F 83.2 °F 64.0 °F 55% 29.83 in 10.0 mi SW 23.0 mph 32.2 mph N/A   Scattered Clouds
2:35 PM 81.0 °F 82.7 °F 64.8 °F 58% 29.82 in 10.0 mi WSW 21.9 mph 31.1 mph N/A   Mostly Cloudy
3:15 PM 81.5 °F 83.4 °F 65.3 °F 58% 29.82 in 10.0 mi WSW 25.3 mph 31.1 mph N/A   Mostly Cloudy
3:35 PM 81.0 °F 83.0 °F 65.7 °F 60% 29.81 in 10.0 mi West 19.6 mph 29.9 mph N/A   Scattered Clouds
3:55 PM 80.8 °F 82.8 °F 65.7 °F 60% 29.81 in 10.0 mi West 24.2 mph 31.1 mph N/A   Mostly Cloudy
4:15 PM 81.9 °F 83.5 °F 64.8 °F 56% 29.81 in 10.0 mi West 23.0 mph 33.4 mph N/A   Mostly Cloudy
4:35 PM 80.8 °F 82.6 °F 65.3 °F 59% 29.81 in 10.0 mi West 21.9 mph 29.9 mph N/A   Scattered Clouds
4:55 PM 80.1 °F 81.5 °F 63.0 °F 56% 29.81 in 10.0 mi West 21.9 mph 27.6 mph N/A   Scattered Clouds
5:15 PM 81.3 °F 82.6 °F 63.0 °F 54% 29.82 in 10.0 mi West 23.0 mph 33.4 mph N/A   Scattered Clouds
5:35 PM 80.4 °F 81.4 °F 61.5 °F 52% 29.82 in 10.0 mi West 18.4 mph 23.0 mph N/A   Clear
5:55 PM 79.9 °F - 60.1 °F 51% 29.82 in 10.0 mi WNW 12.7 mph 21.9 mph N/A   Scattered Clouds
6:15 PM 78.8 °F - 58.6 °F 50% 29.83 in 10.0 mi West 12.7 mph 18.4 mph N/A   Scattered Clouds
6:35 PM 78.1 °F - 55.2 °F 45% 29.84 in 10.0 mi WNW 12.7 mph 20.7 mph N/A   Scattered Clouds
6:55 PM 76.1 °F - 53.6 °F 45% 29.86 in 10.0 mi WNW 11.5 mph - N/A   Clear
7:15 PM 74.5 °F - 50.9 °F 43% 29.86 in 10.0 mi WNW 10.4 mph 21.9 mph N/A   Clear
7:35 PM 72.9 °F - 50.0 °F 44% 29.88 in 10.0 mi WNW 10.4 mph - N/A   Clear
7:55 PM 71.6 °F - 49.3 °F 45% 29.90 in 10.0 mi WNW 9.2 mph - N/A   Clear
8:15 PM 70.5 °F - 50.0 °F 48% 29.91 in 10.0 mi West 12.7 mph - N/A   Clear
8:35 PM 69.4 °F - 49.3 °F 49% 29.92 in 10.0 mi WNW 11.5 mph - N/A   Clear
8:55 PM 68.5 °F - 49.8 °F 51% 29.93 in 10.0 mi West 11.5 mph - N/A   Clear
9:15 PM 67.1 °F - 51.8 °F 58% 29.94 in 10.0 mi West 12.7 mph - N/A   Clear
9:35 PM 66.6 °F - 50.9 °F 57% 29.95 in 10.0 mi WNW 12.7 mph - N/A   Clear
9:55 PM 65.7 °F - 50.9 °F 59% 29.95 in 10.0 mi WNW 11.5 mph - N/A   Clear
10:15 PM 64.6 °F - 50.7 °F 61% 29.96 in 10.0 mi WNW 9.2 mph - N/A   Clear
10:35 PM 63.9 °F - 50.4 °F 61% 29.97 in 10.0 mi WNW 11.5 mph - N/A   Clear
10:55 PM 64.0 °F - 50.0 °F 60% 29.97 in 10.0 mi WNW 10.4 mph - N/A   Clear
11:15 PM 63.5 °F - 50.0 °F 61% 29.99 in 10.0 mi WNW 9.2 mph - N/A   Clear
11:35 PM 62.8 °F - 50.0 °F 63% 30.00 in 10.0 mi WNW 10.4 mph - N/A   Clear
11:55 PM 62.2 °F - 50.2 °F 65% 30.00 in 10.0 mi WNW 10.4 mph - N/A   Clear